Alvin, South Carolina
Current Conditions -  °F | °C
As of 11:15 AM on Monday 22 Dec 2014 (Local Time) from KMKS Reporting Station
Haze Haze  
Wind Chill:   Ceiling: NA
Heat Index:   Visibility: 3mi
Dew Point:   Wind: 5mph
Humidity: 93%   Direction: 50°NE
Pressure: 30.08"   Gusts: NA
Location:  33.4606°N, 80.009°W
Report Text: KMKS 221615Z AUTO 05004KT 3SM BR 08/07 A3008 RMK AO2
Loading
Personal Weather Stations






























Interactive Weather Map New forecast layout! Learn more

10-Day Weather Forecast

Advertisements
Track Severe Weather on mobile